Flight Track Log - Related Links

Times and Time Zones

All times are in EST time to prevent confusion due to time zone crossing. See the ASQ3818 flight status page for this flight to view local times or setup timezone preferences in your user account.

Time Position Orientation Groundspeed Altitude Reporting Facility
EST Latitude Longitude Course Direction KTS MPH feet Rate Location/Type
Fri 05:44:05 PM 36.8678 -76.2331 229° Southwest 153 176 1,800  Level Washington Center
Fri 05:45:05 PM 36.8383 -76.2822 233° Southwest 198 228 3,700 1,867 Climbing Washington Center
Fri 05:45:35 PM 36.8381 -76.3239 270° West 240 276 4,600 1,912 Climbing Washington Center
Fri 05:46:36 PM 36.8606 -76.3914 293° West 240 276 6,600 2,011 Climbing Washington Center
Fri 05:47:43 PM 37.1442 -76.6854 279° West  Level Estimated
Fri 05:48:37 PM 36.9072 -76.5633 289° West 251 289 10,700  Level Washington Center
Fri 05:49:35 PM 36.9358 -76.6547 291° West 271 312 12,200 1,525 Climbing Washington Center
Fri 05:50:35 PM 36.9619 -76.7539 288° West 288 331 13,700 1,587 Climbing Washington Center
Fri 05:51:36 PM 36.9903 -76.8556 289° West 300 345 15,400 1,721 Climbing Washington Center
Fri 05:52:37 PM 37.0183 -76.9575 289° West 307 353 17,200 1,664 Climbing Washington Center
Fri 05:53:35 PM 37.0483 -77.0594 290° West 307 353 18,700 1,525 Climbing Washington Center
Fri 05:54:35 PM 37.0678 -77.1667 283° West 307 353 20,200 1,438 Climbing Washington Center
Fri 05:55:36 PM 37.0853 -77.2739 282° West 307 353 21,600 1,388 Climbing Washington Center
Fri 05:56:36 PM 37.1044 -77.3808 283° West 312 359 23,000 1,240 Climbing Washington Center
Fri 05:57:37 PM 37.1236 -77.4881 283° West 317 365 24,100 1,091 Climbing Washington Center
Fri 05:58:37 PM 37.1428 -77.5928 283° West 317 365 25,200 1,210 Climbing Washington Center
Fri 05:59:36 PM 37.1597 -77.7028 281° West 317 365 26,500 1,664 Climbing Washington Center
Fri 06:00:36 PM 37.1808 -77.8025 285° West 311 358 28,500 1,934 Climbing Washington Center
Fri 06:01:37 PM 37.2231 -77.8872 302° West 300 345 30,400 1,736 Climbing Washington Center
Fri 06:02:37 PM 37.2675 -77.9642 306° West 285 328 32,000 1,513 Climbing Washington Center
Fri 06:03:36 PM 37.3119 -78.0411 306° West 275 316 33,400 1,008 Climbing Washington Center
Fri 06:04:36 PM 37.3542 -78.1131 306° West 270 311 34,000 303 Climbing Washington Center
Fri 06:05:35 PM 37.3983 -78.1903 306° West 280 322 34,000  Level Washington Center
Fri 06:06:35 PM 37.4506 -78.2839 305° West 306 352 34,000 300 Level Washington Center
Fri 06:07:35 PM 37.5028 -78.3772 305° West 322 371 34,600 843 Climbing Washington Center
Fri 06:08:36 PM 37.5647 -78.4869 305° West 342 394 35,700 694 Climbing Washington Center
Fri 06:09:36 PM 37.6167 -78.5833 304° West 342 394 36,000 149 Climbing Washington Center
Fri 06:10:37 PM 37.6725 -78.6853 305° West 342 394 36,000  Level Washington Center
Fri 06:11:35 PM 37.7303 -78.7900 305° West 347 399 36,000  Level Washington Center
Fri 06:12:36 PM 37.7839 -78.8869 305° West 366 421 36,000  Level Washington Center
Fri 06:13:37 PM 37.8456 -78.9972 305° West 372 428 36,000  Level Washington Center
Fri 06:14:38 PM 37.9047 -79.1078 304° West 377 434 36,000  Level Washington Center
Fri 06:15:35 PM 37.9808 -79.2222 310° West 387 445 36,000  Level Washington Center
Fri 06:16:35 PM 38.0464 -79.3256 309° West 387 445 36,000  Level Washington Center
Fri 06:17:36 PM 38.1142 -79.4264 311° West 382 440 36,000  Level Washington Center
Fri 06:18:36 PM 38.1736 -79.5194 309° West 382 440 36,000  Level Washington Center
Fri 06:19:37 PM 38.2411 -79.6208 310° West 382 440 36,000  Level Washington Center
Fri 06:20:35 PM 38.3086 -79.7222 310° West 382 440 36,000  Level Washington Center
Fri 06:21:36 PM 38.3739 -79.8267 309° West 382 440 36,000  Level Washington Center
Fri 06:22:36 PM 38.4511 -79.9425 310° West 382 440 36,000  Level Washington Center
Fri 06:23:37 PM 38.5181 -80.0472 309° West 382 440 36,000  Level Washington Center
Fri 06:24:37 PM 38.5869 -80.1550 309° West 387 445 36,000  Level Washington Center
Fri 06:25:30 PM 38.6456 -80.2397 312° West 393 452 36,000  Level Indianapolis Center
Fri 06:26:32 PM 38.7153 -80.3469 310° West 391 450 36,000  Level Indianapolis Center
Fri 06:27:34 PM 38.7847 -80.4558 309° West 395 455 36,000  Level Indianapolis Center
Fri 06:28:36 PM 38.8539 -80.5628 310° West 391 450 36,000  Level Indianapolis Center
Fri 06:29:38 PM 38.9356 -80.6925 309° West 392 451 36,000  Level Indianapolis Center
Fri 06:30:41 PM 39.0056 -80.7986 310° West 390 449 36,000  Level Indianapolis Center
Fri 06:31:43 PM 39.0758 -80.9047 310° West 390 449 36,000  Level Indianapolis Center
Fri 06:32:45 PM 39.1450 -81.0100 310° West 387 445 36,000  Level Indianapolis Center
Fri 06:33:47 PM 39.2150 -81.1133 311° West 385 443 36,000  Level Indianapolis Center
Fri 06:34:49 PM 39.2861 -81.2186 311° West 389 448 36,000  Level Indianapolis Center
Fri 06:35:51 PM 39.3703 -81.3478 310° West 392 451 36,000  Level Indianapolis Center
Fri 06:36:53 PM 39.4419 -81.4567 310° West 397 457 36,000  Level Indianapolis Center
Fri 06:37:55 PM 39.5133 -81.5658 310° West 398 458 36,000  Level Indianapolis Center
Fri 06:38:57 PM 39.5850 -81.6742 311° West 396 456 36,000  Level Indianapolis Center
Fri 06:39:59 PM 39.6572 -81.7828 311° West 396 456 36,000  Level Indianapolis Center
Fri 06:41:01 PM 39.7181 -81.9136 301° West 379 436 36,000  Level Indianapolis Center
Fri 06:42:03 PM 39.7667 -82.0331 298° West 376 433 36,000  Level Indianapolis Center
Fri 06:43:05 PM 39.8144 -82.1514 298° West 372 428 36,000  Level Indianapolis Center
Fri 06:44:07 PM 39.8639 -82.2725 298° West 378 435 36,000  Level Indianapolis Center
Fri 06:45:09 PM 39.9211 -82.4175 297° West 377 434 36,000  Level Indianapolis Center
Fri 06:46:11 PM 39.9700 -82.5383 298° West 378 435 36,000  Level Indianapolis Center
Fri 06:47:13 PM 40.0192 -82.6617 298° West 384 442 36,000  Level Indianapolis Center
Fri 06:48:15 PM 40.0675 -82.7842 297° West 383 441 36,000  Level Indianapolis Center
Fri 06:49:17 PM 40.1158 -82.9075 297° West 384 442 36,000  Level Indianapolis Center
Fri 06:50:19 PM 40.1650 -83.0319 297° West 388 447 36,000  Level Indianapolis Center
Fri 06:51:21 PM 40.2228 -83.1800 297° West 386 444 36,000  Level Indianapolis Center
Fri 06:52:23 PM 40.2706 -83.3044 297° West 387 445 36,000 -290 Level Indianapolis Center
Fri 06:53:25 PM 40.3197 -83.4303 297° West 390 449 35,400 -871 Descending Indianapolis Center
Fri 06:54:27 PM 40.3681 -83.5569 297° West 393 452 34,200 -452 Descending Indianapolis Center
Fri 06:56:31 PM 40.4800 -83.8447 297° West 408 470 34,000 -65 Descending Indianapolis Center
Fri 06:57:33 PM 40.5303 -83.9797 296° West 412 474 34,000  Level Indianapolis Center
Fri 06:58:35 PM 40.5817 -84.1117 297° West 409 471 34,000  Level Indianapolis Center
Fri 06:59:36 PM 40.6303 -84.2439 296° West 405 466 34,000  Level Indianapolis Center
Fri 07:00:38 PM 40.6797 -84.3753 296° West 403 464 34,000  Level Indianapolis Center
Fri 07:01:40 PM 40.7286 -84.5072 296° West 401 461 34,000  Level Indianapolis Center
Fri 07:02:42 PM 40.7878 -84.6675 296° West 406 467 34,000  Level Indianapolis Center
Fri 07:03:44 PM 40.8361 -84.7992 296° West 403 464 34,000  Level Indianapolis Center
Fri 07:04:48 PM 40.8925 -84.9439 297° West 401 461 34,000  Level Chicago Center
Fri 07:05:50 PM 40.9400 -85.0767 295° West 399 459 34,000 -339 Level Chicago Center
Fri 07:06:52 PM 40.9889 -85.2097 296° West 400 460 33,300 -816 Descending Chicago Center
Fri 07:07:55 PM 41.0372 -85.3458 295° West 404 465 32,300 -1,056 Descending Chicago Center
Fri 07:08:57 PM 41.0856 -85.4806 295° West 405 466 31,100 -1,548 Descending Chicago Center
Fri 07:09:59 PM 41.1339 -85.6133 296° West 399 459 29,100 -1,790 Descending Chicago Center
Fri 07:11:01 PM 41.1786 -85.7419 295° West 386 444 27,400 -1,984 Descending Chicago Center
Fri 07:12:03 PM 41.2322 -85.8925 295° West 377 434 25,000 -1,161 Descending Chicago Center
Fri 07:13:05 PM 41.2769 -86.0172 296° West 373 429 25,000 -290 Level Chicago Center
Fri 07:14:07 PM 41.3078 -86.1556 287° West 398 458 24,400 -968 Descending Chicago Center
Fri 07:15:09 PM 41.3742 -86.2789 306° West 408 470 23,000 -1,984 Descending Chicago Center
Fri 07:16:11 PM 41.4408 -86.3975 307° West 402 463 20,300 -2,688 Descending Chicago Center
Fri 07:17:14 PM 41.5039 -86.5139 306° West 390 449 17,400 -3,120 Descending Chicago Center
Fri 07:18:16 PM 41.5781 -86.6492 306° West 378 435 13,800 -2,565 Descending Chicago Center
Fri 07:19:18 PM 41.6361 -86.7542 307° West 359 413 12,100 -823 Descending Chicago Center
Fri 07:20:20 PM 41.7233 -86.8006 338° Northwest 355 409 12,100  Level Chicago Center
Fri 07:21:22 PM 41.8214 -86.8206 351° North 356 410 12,100 -290 Level Chicago Center
Fri 07:22:24 PM 41.8933 -86.8856 326° Northwest 337 388 11,500 -968 Descending Chicago Center
Fri 07:23:26 PM 41.9464 -87.0158 299° West 331 381 10,100 -1,403 Descending Chicago Center
Fri 07:24:28 PM 41.9819 -87.1031 299° West 280 322 8,600 -1,500 Descending Chicago Center
Fri 07:25:30 PM 41.9814 -87.1964 270° West 256 295 7,000 -774 Descending Chicago Center
Fri 07:26:32 PM 41.9825 -87.2917 271° West 254 292 7,000  Level Chicago Center
Fri 07:27:34 PM 41.9831 -87.3722 271° West 222 255 7,000 -48 Level Chicago Center
Fri 07:28:36 PM 41.9822 -87.4614 269° West 201 231 6,900 -484 Descending Chicago Center
Fri 07:29:38 PM 41.9833 -87.5378 271° West 204 235 6,000 -1,065 Descending Chicago Center
Fri 07:30:40 PM 41.9831 -87.6153 270° West 207 238 4,700 -1,178 Descending Chicago Center
Fri 07:31:25 PM 41.9833 -87.6667 270° West 193 222 3,900 -1,029 Descending Chicago TRACON
Fri 07:32:25 PM 41.9833 -87.7333 270° West 166 191 2,900 -900 Descending Chicago TRACON
Fri 07:33:25 PM 41.9833 -87.8000 270° West 154 177 2,100 -750 Descending Chicago TRACON
Fri 07:34:25 PM 41.9833 -87.8333 270° West 124 143 1,400 -700 Descending Chicago TRACON

Login

Don't have an account? Register now (free) for customized features, flight alerts, and more!